Time;durP1;ratioP1;P1;durP2;ratioP2;P2;SDS_P1;SDS_P2;PMS_P1;PMS_P2;Temp;Humidity;BMP_temperature;BMP_pressure;BME280_temperature;BME280_humidity;BME280_pressure;Samples;Min_cycle;Max_cycle;Signal;HPM_P1;HPM_P2
2022/09/10 00:01:31;;;;;;;2.70;1.50;;;20.40;93.40;;;;;;5052259;28;20651;-75
2022/09/10 00:03:59;;;;;;;3.33;1.67;;;20.30;92.80;;;;;;5068542;28;20224;-75
2022/09/10 00:06:27;;;;;;;2.43;1.43;;;20.30;93.50;;;;;;5068772;28;20218;-75
2022/09/10 00:08:59;;;;;;;5.37;1.50;;;20.30;93.00;;;;;;5052090;28;20262;-75
2022/09/10 00:11:31;;;;;;;2.27;1.37;;;20.30;93.60;;;;;;5051474;28;20215;-75
2022/09/10 00:14:06;;;;;;;3.57;1.20;;;20.30;93.60;;;;;;5073905;28;20186;-75
2022/09/10 00:16:33;;;;;;;2.17;1.40;;;20.20;93.70;;;;;;5068996;28;20186;-75
2022/09/10 00:19:01;;;;;;;2.40;1.40;;;20.20;93.10;;;;;;5068607;28;20191;-75
2022/09/10 00:21:29;;;;;;;3.40;1.63;;;20.20;93.60;;;;;;5060560;28;20194;-75
2022/09/10 00:24:00;;;;;;;3.23;1.60;;;20.10;93.90;;;;;;5069908;28;20714;-75
2022/09/10 00:26:31;;;;;;;3.93;1.50;;;20.20;94.20;;;;;;5044636;28;20647;-75
2022/09/10 00:28:58;;;;;;;2.00;1.40;;;20.20;94.60;;;;;;5066047;28;20191;-75
2022/09/10 00:31:25;;;;;;;2.80;1.50;;;20.30;95.00;;;;;;5042924;28;20544;-75
2022/09/10 00:33:53;;;;;;;4.70;1.50;;;20.30;94.20;;;;;;5052548;28;20187;-75
2022/09/10 00:36:34;;;;;;;3.63;1.67;;;20.40;94.50;;;;;;5069359;28;20198;-75
2022/09/10 00:39:05;;;;;;;1.80;1.37;;;20.40;94.00;;;;;;5071244;28;20332;-75
2022/09/10 00:41:35;;;;;;;3.47;1.70;;;20.10;94.10;;;;;;5052501;28;20189;-75
2022/09/10 00:44:39;;;;;;;2.33;1.80;;;20.10;93.90;;;;;;5052156;28;20656;-74
2022/09/10 00:47:24;;;;;;;2.63;1.40;;;20.10;94.10;;;;;;5027501;28;20199;-75
2022/09/10 00:50:19;;;;;;;3.43;1.47;;;20.10;94.10;;;;;;5073443;28;20195;-75
2022/09/10 00:52:46;;;;;;;2.23;1.50;;;20.10;93.90;;;;;;5069269;28;20186;-75
2022/09/10 00:55:15;;;;;;;2.33;1.50;;;20.10;93.90;;;;;;5066500;28;20190;-74
2022/09/10 00:57:46;;;;;;;3.10;1.40;;;20.10;94.20;;;;;;5062497;28;20330;-75
2022/09/10 01:00:14;;;;;;;3.67;1.70;;;20.10;94.20;;;;;;5061009;28;20180;-75
2022/09/10 01:02:42;;;;;;;1.93;1.57;;;20.20;93.70;;;;;;5066262;28;20194;-75
2022/09/10 01:05:10;;;;;;;3.40;1.60;;;20.20;93.90;;;;;;5060200;28;20179;-75
2022/09/10 01:07:37;;;;;;;1.57;1.30;;;20.20;94.30;;;;;;5076670;28;20189;-75
2022/09/10 01:10:16;;;;;;;4.37;1.60;;;20.20;94.70;;;;;;5056263;28;20180;-75
2022/09/10 01:13:24;;;;;;;2.73;1.63;;;20.20;93.60;;;;;;5050132;28;20632;-75
2022/09/10 01:15:56;;;;;;;3.40;1.50;;;20.30;93.60;;;;;;5084005;28;20264;-75
2022/09/10 01:18:59;;;;;;;2.67;1.67;;;20.20;93.20;;;;;;5051577;28;20501;-75
2022/09/10 01:21:48;;;;;;;1.77;1.37;;;20.30;94.00;;;;;;5067960;28;20222;-75
2022/09/10 01:24:23;;;;;;;4.37;1.50;;;20.30;94.10;;;;;;5068106;28;20273;-75
2022/09/10 01:27:50;;;;;;;1.50;1.40;;;20.40;94.70;;;;;;5065187;28;20190;-75
2022/09/10 01:30:23;;;;;;;2.97;1.70;;;20.40;94.30;;;;;;5065798;28;20292;-75
2022/09/10 01:32:55;;;;;;;6.60;1.60;;;20.40;94.50;;;;;;5068454;28;20320;-75
2022/09/10 01:35:44;;;;;;;2.23;1.50;;;20.40;94.60;;;;;;5067811;28;20186;-74
2022/09/10 01:38:25;;;;;;;2.33;1.40;;;20.30;94.00;;;;;;5083890;28;20187;-75
2022/09/10 01:40:54;;;;;;;5.20;1.70;;;20.20;93.60;;;;;;5068192;28;20190;-75
2022/09/10 01:43:21;;;;;;;1.80;1.43;;;20.20;94.10;;;;;;5085019;28;20610;-75
2022/09/10 01:46:03;;;;;;;2.37;1.53;;;20.20;93.90;;;;;;5071343;28;20554;-75
2022/09/10 01:48:54;;;;;;;2.53;1.67;;;20.10;94.20;;;;;;5070546;28;20193;-75
2022/09/10 01:52:09;;;;;;;4.07;1.80;;;20.20;94.10;;;;;;5051663;28;20214;-75
2022/09/10 01:55:11;;;;;;;1.87;1.50;;;20.20;93.80;;;;;;5065817;28;20911;-75
2022/09/10 01:57:51;;;;;;;2.87;1.80;;;20.20;94.10;;;;;;5026585;28;20858;-75
2022/09/10 02:00:21;;;;;;;2.83;1.70;;;20.20;93.70;;;;;;5063669;28;20197;-75
2022/09/10 02:03:06;;;;;;;2.57;1.47;;;20.20;93.40;;;;;;5067004;28;20332;-75
2022/09/10 02:05:36;;;;;;;2.70;1.57;;;20.20;93.20;;;;;;5056397;28;20193;-75
2022/09/10 02:08:10;;;;;;;2.47;1.73;;;20.20;93.30;;;;;;5066296;28;20289;-75
2022/09/10 02:10:53;;;;;;;1.90;1.40;;;20.20;93.00;;;;;;5067973;28;20631;-75
2022/09/10 02:13:24;;;;;;;3.00;1.60;;;20.30;92.90;;;;;;5051260;28;20182;-75
2022/09/10 02:15:56;;;;;;;3.03;1.50;;;20.30;92.50;;;;;;5068158;28;20198;-75
2022/09/10 02:18:25;;;;;;;2.70;1.73;;;20.20;92.20;;;;;;5050082;28;20255;-75
2022/09/10 02:20:55;;;;;;;2.07;1.60;;;20.20;92.10;;;;;;5067833;28;20199;-75
2022/09/10 02:23:58;;;;;;;2.27;1.47;;;20.20;91.80;;;;;;5051138;28;20190;-75
2022/09/10 02:26:27;;;;;;;3.63;1.70;;;20.20;91.50;;;;;;5023231;28;20199;-74
2022/09/10 02:28:54;;;;;;;1.77;1.30;;;20.20;91.80;;;;;;5069019;28;20250;-75
2022/09/10 02:31:22;;;;;;;2.87;1.50;;;20.10;91.90;;;;;;5048560;28;20628;-75
2022/09/10 02:33:49;;;;;;;2.17;1.40;;;20.20;91.80;;;;;;5064000;28;20215;-75
2022/09/10 02:36:16;;;;;;;2.33;1.50;;;20.20;91.40;;;;;;5053997;28;20544;-75
2022/09/10 02:38:43;;;;;;;3.10;1.60;;;20.30;92.20;;;;;;5070716;28;20214;-75
2022/09/10 02:41:09;;;;;;;5.07;1.80;;;20.30;92.10;;;;;;5054718;28;20189;-74
2022/09/10 02:43:37;;;;;;;4.50;1.43;;;20.30;92.20;;;;;;5070177;28;20274;-75
2022/09/10 02:46:06;;;;;;;2.93;1.50;;;20.30;92.40;;;;;;5053986;28;20187;-75
2022/09/10 02:48:32;;;;;;;3.93;1.60;;;20.30;92.70;;;;;;5051945;28;20241;-74
2022/09/10 02:51:02;;;;;;;4.20;1.67;;;20.30;93.00;;;;;;5072622;28;20207;-74
2022/09/10 02:53:30;;;;;;;2.30;1.63;;;20.30;92.60;;;;;;5071600;28;20179;-75
2022/09/10 02:55:57;;;;;;;3.10;1.70;;;20.30;92.10;;;;;;5071237;28;20194;-74
2022/09/10 02:58:23;;;;;;;2.10;1.60;;;20.40;91.80;;;;;;5085619;28;20191;-74
2022/09/10 03:00:50;;;;;;;4.50;2.13;;;20.40;92.20;;;;;;5062606;28;20187;-74
2022/09/10 03:03:16;;;;;;;2.57;1.77;;;20.40;92.30;;;;;;5064762;28;20267;-75
2022/09/10 03:05:42;;;;;;;2.73;1.70;;;20.40;92.20;;;;;;5075892;28;20193;-74
2022/09/10 03:08:09;;;;;;;2.30;1.63;;;20.40;92.10;;;;;;5068710;28;20641;-75
2022/09/10 03:10:38;;;;;;;1.70;1.50;;;20.30;92.60;;;;;;5049094;28;20263;-74
2022/09/10 03:13:04;;;;;;;2.47;1.67;;;20.40;92.90;;;;;;5071193;28;20197;-75
2022/09/10 03:15:30;;;;;;;2.23;1.50;;;20.40;93.00;;;;;;5070757;28;20214;-75
2022/09/10 03:17:57;;;;;;;7.20;2.00;;;20.40;92.90;;;;;;5087192;28;20183;-75
2022/09/10 03:20:24;;;;;;;3.80;1.90;;;20.50;92.20;;;;;;5075766;28;20281;-75
2022/09/10 03:22:50;;;;;;;3.00;1.70;;;20.50;93.10;;;;;;5054314;28;20236;-75
2022/09/10 03:25:18;;;;;;;3.90;1.67;;;20.40;93.30;;;;;;5053306;28;20195;-75
2022/09/10 03:27:48;;;;;;;2.07;1.60;;;20.50;91.60;;;;;;5070989;28;20217;-75
2022/09/10 03:30:15;;;;;;;4.70;1.73;;;20.60;92.40;;;;;;5067510;28;20992;-75
2022/09/10 03:32:42;;;;;;;2.90;1.80;;;20.60;92.60;;;;;;5065688;28;20207;-75
2022/09/10 03:35:09;;;;;;;2.33;1.80;;;20.60;92.80;;;;;;5075184;28;20190;-75
2022/09/10 03:37:35;;;;;;;3.63;1.53;;;20.60;92.60;;;;;;5071297;28;20903;-75
2022/09/10 03:40:04;;;;;;;3.23;1.83;;;20.50;92.80;;;;;;5067684;28;20195;-75
2022/09/10 03:42:30;;;;;;;4.77;1.90;;;20.50;92.30;;;;;;5036999;28;20182;-75
2022/09/10 03:44:58;;;;;;;2.77;1.90;;;20.40;92.50;;;;;;5069970;28;20179;-75
2022/09/10 03:47:24;;;;;;;2.87;1.80;;;20.40;92.40;;;;;;5052158;28;20193;-75
2022/09/10 03:49:51;;;;;;;3.77;1.90;;;20.40;92.70;;;;;;5053158;28;20206;-75
2022/09/10 03:52:17;;;;;;;2.37;1.90;;;20.50;92.60;;;;;;5069767;28;20219;-75
2022/09/10 03:54:44;;;;;;;5.00;1.80;;;20.40;93.00;;;;;;5075816;28;20246;-75
2022/09/10 03:57:11;;;;;;;3.10;1.80;;;20.40;92.80;;;;;;5053540;28;20278;-76
2022/09/10 03:59:39;;;;;;;5.70;1.80;;;20.50;92.80;;;;;;5053039;28;20277;-75
2022/09/10 04:02:08;;;;;;;3.30;1.67;;;20.50;92.80;;;;;;5062379;28;20187;-75
2022/09/10 04:04:36;;;;;;;1.90;1.67;;;20.50;92.80;;;;;;5067617;28;20344;-75
2022/09/10 04:07:04;;;;;;;4.33;2.00;;;20.50;92.90;;;;;;5069908;28;20197;-75
2022/09/10 04:09:31;;;;;;;2.20;1.57;;;20.50;93.10;;;;;;5072422;28;20190;-75
2022/09/10 04:11:59;;;;;;;7.70;1.80;;;20.50;93.00;;;;;;5069554;28;20297;-75
2022/09/10 04:14:25;;;;;;;2.27;1.70;;;20.50;93.00;;;;;;5053152;28;20183;-74
2022/09/10 04:16:53;;;;;;;3.60;1.60;;;20.50;93.00;;;;;;5069677;28;20206;-75
2022/09/10 04:19:20;;;;;;;5.77;1.77;;;20.50;92.90;;;;;;5070401;28;20588;-75
2022/09/10 04:21:47;;;;;;;2.00;1.50;;;20.60;93.00;;;;;;5050002;28;20230;-75
2022/09/10 04:24:14;;;;;;;2.87;1.80;;;20.60;93.00;;;;;;5052854;28;20198;-75
2022/09/10 04:26:41;;;;;;;3.83;2.03;;;20.60;93.40;;;;;;5052863;28;20194;-75
2022/09/10 04:29:07;;;;;;;6.27;1.70;;;20.50;93.40;;;;;;5066952;28;20195;-75
2022/09/10 04:31:33;;;;;;;5.30;1.70;;;20.40;94.20;;;;;;5068293;28;20287;-75
2022/09/10 04:34:00;;;;;;;2.33;1.60;;;20.50;94.10;;;;;;5063568;28;20183;-75
2022/09/10 04:36:27;;;;;;;3.90;1.87;;;20.40;94.30;;;;;;5069410;28;20191;-75
2022/09/10 04:38:54;;;;;;;6.60;1.50;;;20.50;94.10;;;;;;5070012;28;20198;-75
2022/09/10 04:41:20;;;;;;;3.17;1.83;;;20.50;94.20;;;;;;5046894;28;20221;-75
2022/09/10 04:43:46;;;;;;;10.57;2.03;;;20.50;94.10;;;;;;5068990;28;20211;-75
2022/09/10 04:46:13;;;;;;;3.13;1.83;;;20.50;94.20;;;;;;5068280;28;20195;-75
2022/09/10 04:48:39;;;;;;;7.23;2.10;;;20.50;94.00;;;;;;5068213;28;20183;-75
2022/09/10 04:51:06;;;;;;;2.53;1.90;;;20.60;94.40;;;;;;5073915;28;20305;-75
2022/09/10 04:53:33;;;;;;;4.30;1.80;;;20.60;94.70;;;;;;5069156;28;20182;-75
2022/09/10 04:56:00;;;;;;;3.40;1.80;;;20.60;94.70;;;;;;5071303;28;20607;-75
2022/09/10 04:58:26;;;;;;;2.97;1.87;;;20.70;94.90;;;;;;5070676;28;20186;-75
2022/09/10 05:00:55;;;;;;;2.77;1.70;;;20.80;95.20;;;;;;5060242;28;20194;-75
2022/09/10 05:03:25;;;;;;;3.73;1.90;;;20.90;95.60;;;;;;5053671;28;20243;-75
2022/09/10 05:05:52;;;;;;;3.20;1.80;;;21.00;96.00;;;;;;5046083;28;20214;-75
2022/09/10 05:08:18;;;;;;;3.47;1.90;;;21.10;96.40;;;;;;5068256;28;20225;-75
2022/09/10 05:10:45;;;;;;;3.07;1.73;;;21.20;96.60;;;;;;5066553;28;20211;-75
2022/09/10 05:13:11;;;;;;;3.10;1.60;;;21.30;97.00;;;;;;5081487;28;20187;-75
2022/09/10 05:15:40;;;;;;;1.87;1.47;;;21.40;97.00;;;;;;5064769;28;20654;-76
2022/09/10 05:18:07;;;;;;;3.63;1.43;;;21.50;97.10;;;;;;5048215;28;20183;-76
2022/09/10 05:20:34;;;;;;;3.67;1.77;;;21.60;97.10;;;;;;5074482;28;20195;-75
2022/09/10 05:23:01;;;;;;;2.30;1.50;;;21.60;97.20;;;;;;5066271;28;20636;-76
2022/09/10 05:25:28;;;;;;;2.07;1.57;;;21.70;97.10;;;;;;5068441;28;20194;-75
2022/09/10 05:27:54;;;;;;;10.67;2.00;;;21.80;97.10;;;;;;5068035;28;20236;-75
2022/09/10 05:30:21;;;;;;;5.77;2.00;;;21.80;96.90;;;;;;5067929;28;20190;-75
2022/09/10 05:32:47;;;;;;;3.47;1.50;;;21.90;96.50;;;;;;5068447;28;20297;-75
2022/09/10 05:35:13;;;;;;;4.97;1.50;;;21.90;96.40;;;;;;5062135;28;20186;-76
2022/09/10 05:37:42;;;;;;;4.18;1.90;;;22.00;96.50;;;;;;5065155;28;20188;-75
2022/09/10 05:40:13;;;;;;;2.50;1.60;;;22.10;96.50;;;;;;5050890;28;20195;-75
2022/09/10 05:42:40;;;;;;;2.72;1.73;;;22.20;95.80;;;;;;5051646;28;20695;-75
2022/09/10 05:45:08;;;;;;;2.35;1.70;;;22.20;95.50;;;;;;5084845;28;20187;-75
2022/09/10 05:47:36;;;;;;;3.50;1.70;;;22.30;95.40;;;;;;5051637;28;20217;-76
2022/09/10 05:50:04;;;;;;;1.98;1.60;;;22.40;93.30;;;;;;5040285;28;20188;-75
2022/09/10 05:52:31;;;;;;;2.78;1.85;;;22.40;93.30;;;;;;5065489;28;20256;-75
2022/09/10 05:54:58;;;;;;;3.70;1.50;;;22.50;93.40;;;;;;5068364;28;20178;-76
2022/09/10 05:57:25;;;;;;;1.67;1.50;;;22.60;93.40;;;;;;5068234;28;20179;-76
2022/09/10 05:59:51;;;;;;;4.13;1.75;;;22.60;93.00;;;;;;5067378;28;20187;-77
2022/09/10 06:02:19;;;;;;;3.03;1.70;;;22.70;92.60;;;;;;5051063;28;20198;-77
2022/09/10 06:04:47;;;;;;;3.33;1.77;;;22.80;92.00;;;;;;5077362;28;20482;-76
2022/09/10 06:07:15;;;;;;;2.92;1.80;;;22.90;92.40;;;;;;5067553;28;20195;-77
2022/09/10 06:09:41;;;;;;;3.22;2.28;;;22.90;92.80;;;;;;5067959;28;20616;-77
2022/09/10 06:12:07;;;;;;;2.50;1.58;;;22.90;92.40;;;;;;5071779;28;20210;-75
2022/09/10 06:14:35;;;;;;;6.00;1.90;;;23.00;92.80;;;;;;5072581;28;20201;-77
2022/09/10 06:17:03;;;;;;;5.68;1.80;;;23.00;93.70;;;;;;5073792;28;20236;-77
2022/09/10 06:19:29;;;;;;;6.80;1.75;;;23.10;93.50;;;;;;5068640;28;20179;-76
2022/09/10 06:21:56;;;;;;;3.35;1.80;;;23.10;94.10;;;;;;5068306;28;20189;-77
2022/09/10 06:24:23;;;;;;;3.72;1.92;;;23.20;94.40;;;;;;5073868;28;20265;-77
2022/09/10 06:26:50;;;;;;;2.67;1.80;;;23.20;93.80;;;;;;5054894;28;20171;-77
2022/09/10 06:29:21;;;;;;;3.92;1.70;;;23.30;92.60;;;;;;5079466;28;20190;-78
2022/09/10 06:31:47;;;;;;;3.53;1.70;;;23.30;92.80;;;;;;5072485;28;20217;-77
2022/09/10 06:34:18;;;;;;;6.55;1.80;;;23.50;91.90;;;;;;5071968;28;20182;-77
2022/09/10 06:36:49;;;;;;;5.78;1.70;;;23.60;92.10;;;;;;5076631;28;20225;-77
2022/09/10 06:39:16;;;;;;;3.75;1.50;;;23.70;91.40;;;;;;5071506;28;20198;-77
2022/09/10 06:41:45;;;;;;;4.93;1.67;;;23.80;92.10;;;;;;5071831;28;20193;-77
2022/09/10 06:44:11;;;;;;;4.25;1.63;;;23.90;91.10;;;;;;5060483;28;20658;-77
2022/09/10 06:46:37;;;;;;;5.03;1.85;;;24.00;91.00;;;;;;5054080;28;20191;-77
2022/09/10 06:49:10;;;;;;;3.53;1.67;;;24.10;90.20;;;;;;5070835;28;20618;-77
2022/09/10 06:51:38;;;;;;;6.00;1.92;;;24.20;90.10;;;;;;5068502;28;20214;-77
2022/09/10 06:54:06;;;;;;;3.85;1.90;;;24.50;90.60;;;;;;5070331;28;20281;-77
2022/09/10 06:56:33;;;;;;;3.53;1.70;;;24.80;89.30;;;;;;5071387;28;20185;-77
2022/09/10 06:59:00;;;;;;;6.20;1.85;;;24.90;88.80;;;;;;5072685;28;20924;-78
2022/09/10 07:01:29;;;;;;;8.00;2.00;;;25.10;86.50;;;;;;5071663;28;20198;-77
2022/09/10 07:03:58;;;;;;;2.45;1.63;;;25.30;86.40;;;;;;5087284;28;20198;-77
2022/09/10 07:06:27;;;;;;;2.70;1.80;;;25.40;89.40;;;;;;5080989;28;20191;-77
2022/09/10 07:08:56;;;;;;;3.22;1.88;;;25.60;93.10;;;;;;5062853;28;20183;-77
2022/09/10 07:11:30;;;;;;;8.63;2.42;;;25.70;95.00;;;;;;5060646;28;20206;-77
2022/09/10 07:13:59;;;;;;;6.03;2.00;;;25.70;97.40;;;;;;5071045;28;20208;-75
2022/09/10 07:16:26;;;;;;;7.53;2.10;;;25.80;98.00;;;;;;5053460;28;20190;-76
2022/09/10 07:18:56;;;;;;;4.47;1.98;;;25.90;99.90;;;;;;5051541;28;20292;-76
2022/09/10 07:21:26;;;;;;;6.38;2.53;;;25.90;99.90;;;;;;5049802;28;20183;-76
2022/09/10 07:24:00;;;;;;;6.03;2.28;;;26.00;99.90;;;;;;5070290;28;20263;-76
2022/09/10 07:26:26;;;;;;;5.25;2.20;;;26.20;99.90;;;;;;5055716;28;20197;-77
2022/09/10 07:28:54;;;;;;;5.00;2.28;;;26.40;99.90;;;;;;5069116;28;20186;-76
2022/09/10 07:31:29;;;;;;;5.18;2.00;;;26.40;99.90;;;;;;5054196;28;20921;-76
2022/09/10 07:33:57;;;;;;;9.00;2.70;;;26.50;99.90;;;;;;5070577;28;20244;-77
2022/09/10 07:36:25;;;;;;;8.15;2.40;;;26.60;99.90;;;;;;5076212;28;20654;-77
2022/09/10 07:38:56;;;;;;;7.18;2.60;;;26.70;99.90;;;;;;5069702;28;20191;-76
2022/09/10 07:41:28;;;;;;;3.92;2.08;;;26.80;99.90;;;;;;5069890;28;20647;-76
2022/09/10 07:43:58;;;;;;;7.88;2.45;;;26.80;99.90;;;;;;5078235;28;20194;-77
2022/09/10 07:46:27;;;;;;;4.03;2.47;;;26.80;99.90;;;;;;5074434;28;20186;-76
2022/09/10 07:48:59;;;;;;;3.08;2.08;;;26.90;99.90;;;;;;5053084;28;20820;-76
2022/09/10 07:51:28;;;;;;;6.32;2.10;;;26.90;99.90;;;;;;5069800;28;20207;-76
2022/09/10 07:53:58;;;;;;;6.38;2.45;;;27.10;99.90;;;;;;5046972;28;20183;-76
2022/09/10 07:56:24;;;;;;;5.78;2.75;;;27.10;99.90;;;;;;5051964;28;20187;-76
2022/09/10 07:58:52;;;;;;;8.80;2.53;;;27.20;99.90;;;;;;5037954;28;20187;-77
2022/09/10 08:01:20;;;;;;;9.30;2.53;;;27.20;99.90;;;;;;5059820;28;20222;-76
2022/09/10 08:03:47;;;;;;;4.95;2.50;;;27.20;99.90;;;;;;5070008;28;20198;-77
2022/09/10 08:06:14;;;;;;;6.28;2.10;;;27.30;99.90;;;;;;5074311;28;20734;-77
2022/09/10 08:08:41;;;;;;;3.70;2.13;;;27.40;99.90;;;;;;5094422;28;20187;-77
2022/09/10 08:11:11;;;;;;;5.78;2.40;;;27.40;99.10;;;;;;5056473;28;20202;-76
2022/09/10 08:13:49;;;;;;;4.10;2.20;;;27.40;99.60;;;;;;5073218;28;20186;-77
2022/09/10 08:16:19;;;;;;;4.68;2.75;;;27.60;97.40;;;;;;5073227;28;20639;-76
2022/09/10 08:18:47;;;;;;;9.98;2.20;;;27.60;99.90;;;;;;5070517;28;20941;-77
2022/09/10 08:21:16;;;;;;;3.28;2.22;;;27.70;98.70;;;;;;5068809;28;20623;-76
2022/09/10 08:23:49;;;;;;;6.60;2.70;;;27.70;99.90;;;;;;5079182;28;20779;-77
2022/09/10 08:26:16;;;;;;;4.32;2.50;;;27.80;99.90;;;;;;5068491;28;20220;-76
2022/09/10 08:28:43;;;;;;;4.00;2.47;;;28.00;99.90;;;;;;5056220;28;20640;-77
2022/09/10 08:31:11;;;;;;;7.10;2.85;;;28.10;99.90;;;;;;5076030;28;20623;-77
2022/09/10 08:33:39;;;;;;;10.50;2.47;;;28.00;99.90;;;;;;5067904;28;20183;-77
2022/09/10 08:36:12;;;;;;;5.32;2.70;;;28.10;99.90;;;;;;5068959;28;20658;-77
2022/09/10 08:38:40;;;;;;;4.45;2.40;;;28.10;99.90;;;;;;5045451;28;20194;-76
2022/09/10 08:41:35;;;;;;;7.40;2.92;;;28.20;99.90;;;;;;5070649;28;20194;-78
2022/09/10 08:44:40;;;;;;;9.68;2.70;;;28.20;99.90;;;;;;5059480;28;20202;-75
2022/09/10 08:47:20;;;;;;;9.20;3.20;;;28.40;99.90;;;;;;5062234;28;20644;-75
2022/09/10 08:50:08;;;;;;;7.30;2.90;;;28.50;99.90;;;;;;5065015;28;20179;-73
2022/09/10 08:53:14;;;;;;;6.50;3.00;;;28.60;99.90;;;;;;5065311;28;20211;-74
2022/09/10 08:55:46;;;;;;;7.97;2.70;;;28.70;99.90;;;;;;5050061;28;20225;-74
2022/09/10 08:58:36;;;;;;;5.00;2.50;;;28.80;99.90;;;;;;5065825;28;20171;-74
2022/09/10 09:01:09;;;;;;;5.88;2.80;;;28.70;99.90;;;;;;5068364;28;20266;-72
2022/09/10 09:03:46;;;;;;;3.90;2.33;;;29.00;99.90;;;;;;5050146;28;20186;-71
2022/09/10 09:06:40;;;;;;;4.90;2.65;;;29.00;99.90;;;;;;5060185;28;20698;-71
2022/09/10 09:09:08;;;;;;;6.85;3.20;;;29.10;99.90;;;;;;5067731;28;20191;-70
2022/09/10 09:12:01;;;;;;;4.40;2.75;;;29.20;99.90;;;;;;5061333;28;20294;-70
2022/09/10 09:14:59;;;;;;;3.95;2.80;;;29.30;99.90;;;;;;5066172;28;20194;-70
2022/09/10 09:18:19;;;;;;;3.88;2.75;;;29.50;99.90;;;;;;5066495;28;20190;-70
2022/09/10 09:20:56;;;;;;;5.88;2.63;;;29.60;99.90;;;;;;5052602;28;20664;-72
2022/09/10 09:23:31;;;;;;;11.80;3.15;;;29.80;99.90;;;;;;5067845;28;20520;-71
2022/09/10 09:26:12;;;;;;;4.55;2.80;;;29.80;99.90;;;;;;5065918;28;20616;-71
2022/09/10 09:28:59;;;;;;;6.93;2.83;;;30.00;99.90;;;;;;5063799;28;20764;-72
2022/09/10 09:31:32;;;;;;;6.47;3.03;;;30.00;99.90;;;;;;5064282;28;20219;-71
2022/09/10 09:34:19;;;;;;;4.57;2.50;;;30.20;99.90;;;;;;5043912;28;20186;-72
2022/09/10 09:37:00;;;;;;;8.95;2.80;;;30.30;99.90;;;;;;5064010;28;20243;-71
2022/09/10 09:39:31;;;;;;;4.35;2.70;;;30.50;99.90;;;;;;5063807;28;20209;-72
2022/09/10 09:42:17;;;;;;;9.88;3.17;;;30.70;99.90;;;;;;5092136;28;20189;-72
2022/09/10 09:45:01;;;;;;;7.60;2.80;;;30.70;99.90;;;;;;5066479;28;20278;-70
2022/09/10 09:47:27;;;;;;;4.63;2.50;;;31.00;99.90;;;;;;5065294;28;20218;-71
2022/09/10 09:49:54;;;;;;;6.47;2.63;;;31.30;99.90;;;;;;5057074;28;20213;-71
2022/09/10 09:52:30;;;;;;;7.80;2.78;;;31.60;99.90;;;;;;5068410;28;20241;-70
2022/09/10 09:55:10;;;;;;;6.05;3.08;;;33.70;99.90;;;;;;5060800;28;20210;-71
2022/09/10 09:57:37;;;;;;;4.03;2.60;;;35.20;98.90;;;;;;5058179;28;20186;-71
2022/09/10 10:00:36;;;;;;;9.93;2.83;;;35.90;97.50;;;;;;5062714;28;20285;-71
2022/09/10 10:03:27;;;;;;;6.18;2.75;;;34.50;98.10;;;;;;5021603;28;20209;-71
2022/09/10 10:06:11;;;;;;;5.35;2.65;;;33.30;98.80;;;;;;5033336;28;20198;-72
2022/09/10 10:08:56;;;;;;;4.60;2.63;;;32.90;99.00;;;;;;5065358;28;20252;-71
2022/09/10 10:11:44;;;;;;;8.95;2.75;;;32.40;99.90;;;;;;5066417;28;20206;-72
2022/09/10 10:14:21;;;;;;;6.10;2.65;;;32.20;99.90;;;;;;5054610;28;20218;-71
2022/09/10 10:16:53;;;;;;;6.10;2.80;;;32.20;99.90;;;;;;5067562;28;20183;-72
2022/09/10 10:19:37;;;;;;;7.13;2.88;;;32.40;99.90;;;;;;5046945;28;20226;-72
2022/09/10 10:22:16;;;;;;;7.28;2.80;;;32.60;99.90;;;;;;5061861;28;20194;-71
2022/09/10 10:24:46;;;;;;;7.05;3.08;;;33.20;99.90;;;;;;5067367;28;20638;-71
2022/09/10 10:27:25;;;;;;;5.55;2.80;;;33.20;99.90;;;;;;5063377;28;20927;-71
2022/09/10 10:30:21;;;;;;;3.58;2.40;;;32.70;99.70;;;;;;5058244;28;20214;-71
2022/09/10 10:33:03;;;;;;;3.40;2.60;;;32.10;99.30;;;;;;5059515;28;20389;-72
2022/09/10 10:35:55;;;;;;;5.43;2.70;;;31.70;99.90;;;;;;5066422;28;20194;-72
2022/09/10 10:38:46;;;;;;;6.30;2.90;;;31.40;99.90;;;;;;5064523;28;20649;-72
2022/09/10 10:41:30;;;;;;;6.18;3.13;;;31.10;99.90;;;;;;5073020;28;20183;-73
2022/09/10 10:44:25;;;;;;;6.78;2.70;;;31.20;99.90;;;;;;5048851;28;20264;-72
2022/09/10 10:46:54;;;;;;;7.57;3.00;;;31.30;99.60;;;;;;5063467;28;20190;-72
2022/09/10 10:49:56;;;;;;;6.82;2.80;;;31.30;99.90;;;;;;5066405;28;20288;-72
2022/09/10 10:52:43;;;;;;;4.80;2.97;;;31.20;99.90;;;;;;5058658;28;20232;-73
2022/09/10 10:55:37;;;;;;;8.27;3.10;;;31.20;99.90;;;;;;5048013;28;20532;-72
2022/09/10 10:58:32;;;;;;;4.85;2.75;;;31.30;99.90;;;;;;5065962;28;20176;-71
2022/09/10 11:01:32;;;;;;;6.53;2.80;;;31.20;99.90;;;;;;5062317;28;20222;-72
2022/09/10 11:04:37;;;;;;;6.82;2.60;;;31.20;99.90;;;;;;5037736;28;20682;-71
2022/09/10 11:07:21;;;;;;;10.02;3.20;;;31.20;99.90;;;;;;5069424;28;20679;-72
2022/09/10 11:10:33;;;;;;;6.30;3.45;;;31.20;99.90;;;;;;5070671;28;20590;-70
2022/09/10 11:13:26;;;;;;;4.65;2.92;;;31.10;99.90;;;;;;5052326;28;20552;-71
2022/09/10 11:16:23;;;;;;;6.60;3.05;;;31.00;99.90;;;;;;5068839;28;20244;-71
2022/09/10 11:19:02;;;;;;;5.53;3.05;;;31.10;99.90;;;;;;5067651;28;20187;-72
2022/09/10 11:21:39;;;;;;;7.82;3.10;;;31.10;99.90;;;;;;5066655;28;20197;-71
2022/09/10 11:24:28;;;;;;;11.40;3.30;;;31.00;99.90;;;;;;5058222;28;20179;-72
2022/09/10 11:27:15;;;;;;;9.35;2.83;;;31.00;99.90;;;;;;5075455;28;20182;-71
2022/09/10 11:30:08;;;;;;;7.50;2.80;;;31.00;99.90;;;;;;5061442;28;20696;-72
2022/09/10 11:32:54;;;;;;;10.25;3.42;;;31.00;99.90;;;;;;5066248;28;20233;-71
2022/09/10 11:35:50;;;;;;;6.65;3.03;;;31.00;99.90;;;;;;5051982;28;20176;-72
2022/09/10 11:38:59;;;;;;;7.72;3.25;;;30.90;99.90;;;;;;5066399;28;20190;-72
2022/09/10 11:41:31;;;;;;;6.45;3.20;;;31.00;99.90;;;;;;5042460;28;24340;-72
2022/09/10 11:44:24;;;;;;;5.68;3.00;;;30.90;99.90;;;;;;5069972;28;20179;-72
2022/09/10 11:47:22;;;;;;;5.82;2.50;;;30.90;99.90;;;;;;5069524;28;20179;-72
2022/09/10 11:50:06;;;;;;;7.13;2.83;;;31.00;99.90;;;;;;5055703;28;20202;-72
2022/09/10 11:52:34;;;;;;;11.57;3.15;;;30.90;99.90;;;;;;5071383;28;20664;-73
2022/09/10 11:55:03;;;;;;;9.13;2.90;;;30.90;99.90;;;;;;5069571;28;20179;-72
2022/09/10 11:57:47;;;;;;;8.48;3.00;;;30.90;99.90;;;;;;5065646;28;20657;-71
2022/09/10 12:00:24;;;;;;;3.92;2.70;;;30.90;99.90;;;;;;5062873;28;20195;-72
2022/09/10 12:03:19;;;;;;;4.60;2.80;;;30.90;99.90;;;;;;5060566;28;20210;-71
2022/09/10 12:06:28;;;;;;;7.60;3.00;;;31.00;99.90;;;;;;5066853;28;20836;-71
2022/09/10 12:09:29;;;;;;;9.93;3.00;;;30.90;99.90;;;;;;5060197;28;20281;-72
2022/09/10 12:12:26;;;;;;;9.18;3.28;;;30.80;99.90;;;;;;5078088;28;20333;-73
2022/09/10 12:15:06;;;;;;;5.60;3.25;;;30.90;99.90;;;;;;5054683;28;20710;-72
2022/09/10 12:17:41;;;;;;;6.32;2.95;;;30.90;99.90;;;;;;5066352;28;20247;-73
2022/09/10 12:20:19;;;;;;;5.30;3.40;;;30.90;99.90;;;;;;5064027;28;20217;-73
2022/09/10 12:22:54;;;;;;;7.45;3.35;;;30.80;99.90;;;;;;5068376;28;20545;-72
2022/09/10 12:25:20;;;;;;;7.90;2.97;;;30.80;99.90;;;;;;5071199;28;20190;-73
2022/09/10 12:27:59;;;;;;;6.43;3.35;;;30.90;99.90;;;;;;5083856;28;20190;-73
2022/09/10 12:30:28;;;;;;;8.30;2.97;;;30.90;99.90;;;;;;5070243;28;20186;-73
2022/09/10 12:33:23;;;;;;;5.72;2.95;;;30.90;99.90;;;;;;5059943;28;20267;-73
2022/09/10 12:35:51;;;;;;;8.52;2.90;;;30.90;99.90;;;;;;5062325;28;20187;-72
2022/09/10 12:38:48;;;;;;;5.40;2.97;;;30.70;99.90;;;;;;5072499;28;20519;-73
2022/09/10 12:41:23;;;;;;;12.65;3.00;;;30.70;99.90;;;;;;5070759;28;20315;-73
2022/09/10 12:43:53;;;;;;;29.65;6.80;;;30.60;99.90;;;;;;5063675;28;20228;-73
2022/09/10 12:46:24;;;;;;;6.40;3.08;;;30.60;99.90;;;;;;5064458;28;20185;-73
2022/09/10 12:48:57;;;;;;;7.25;2.70;;;30.60;99.90;;;;;;5085136;28;20206;-73
2022/09/10 12:51:58;;;;;;;5.97;2.80;;;30.60;99.70;;;;;;5050603;28;20210;-73
2022/09/10 12:54:40;;;;;;;8.27;2.60;;;30.70;99.90;;;;;;5032249;28;20181;-73
2022/09/10 12:57:49;;;;;;;4.63;2.53;;;30.60;99.80;;;;;;5065415;28;20179;-73
2022/09/10 13:00:40;;;;;;;6.47;2.65;;;30.60;99.90;;;;;;5044772;28;20265;-73
2022/09/10 13:03:07;;;;;;;5.18;2.53;;;30.60;99.30;;;;;;5064865;28;20195;-74
2022/09/10 13:05:47;;;;;;;9.00;2.90;;;30.70;99.40;;;;;;5064657;28;20182;-73
2022/09/10 13:08:24;;;;;;;14.20;2.78;;;30.60;99.80;;;;;;5079125;28;20184;-73
2022/09/10 13:10:58;;;;;;;10.45;3.00;;;30.60;99.60;;;;;;5067559;28;20210;-73
2022/09/10 13:14:02;;;;;;;5.30;2.70;;;30.70;99.70;;;;;;5069958;28;20231;-73
2022/09/10 13:16:29;;;;;;;9.93;3.38;;;30.60;99.40;;;;;;5064563;28;20541;-73
2022/09/10 13:19:15;;;;;;;6.45;2.70;;;30.50;98.90;;;;;;5049762;28;20240;-73
2022/09/10 13:21:45;;;;;;;5.60;2.45;;;30.50;98.80;;;;;;5050389;28;20187;-73
2022/09/10 13:24:34;;;;;;;6.82;2.78;;;30.50;98.60;;;;;;5062257;28;20179;-73
2022/09/10 13:27:42;;;;;;;8.45;2.65;;;30.50;98.30;;;;;;5066456;28;20193;-73